sensor_id;sensor_type;location;lat;lon;timestamp;pressure;altitude;pressure_sealevel;temperature;humidity
63700;BME280;49845;47.130;142.766;2023-05-09T00:02:00;99664.13;;;11.14;56.63
63700;BME280;49845;47.130;142.766;2023-05-09T00:04:31;99663.72;;;11.28;57.03
63700;BME280;49845;47.130;142.766;2023-05-09T00:07:02;99671.00;;;11.48;56.17
63700;BME280;49845;47.130;142.766;2023-05-09T00:09:33;99655.59;;;11.69;55.73
63700;BME280;49845;47.130;142.766;2023-05-09T00:12:06;99649.66;;;11.92;56.36
63700;BME280;49845;47.130;142.766;2023-05-09T00:14:38;99639.31;;;11.87;55.63
63700;BME280;49845;47.130;142.766;2023-05-09T00:17:09;99637.06;;;11.75;55.47
63700;BME280;49845;47.130;142.766;2023-05-09T00:19:42;99639.75;;;11.73;55.57
63700;BME280;49845;47.130;142.766;2023-05-09T00:22:12;99635.47;;;11.71;55.89
63700;BME280;49845;47.130;142.766;2023-05-09T00:24:43;99635.47;;;11.71;56.18
63700;BME280;49845;47.130;142.766;2023-05-09T00:27:14;99631.81;;;11.75;56.05
63700;BME280;49845;47.130;142.766;2023-05-09T00:29:46;99640.59;;;12.02;55.87
63700;BME280;49845;47.130;142.766;2023-05-09T00:32:17;99639.03;;;12.23;55.83
63700;BME280;49845;47.130;142.766;2023-05-09T00:34:47;99636.81;;;12.37;55.74
63700;BME280;49845;47.130;142.766;2023-05-09T00:37:18;99633.63;;;12.54;56.16
63700;BME280;49845;47.130;142.766;2023-05-09T00:39:48;99638.97;;;12.76;55.90
63700;BME280;49845;47.130;142.766;2023-05-09T00:42:19;99633.63;;;12.79;54.16
63700;BME280;49845;47.130;142.766;2023-05-09T00:44:51;99641.09;;;12.65;53.70
63700;BME280;49845;47.130;142.766;2023-05-09T00:47:22;99641.16;;;12.38;53.73
63700;BME280;49845;47.130;142.766;2023-05-09T00:49:56;99644.81;;;12.33;54.62
63700;BME280;49845;47.130;142.766;2023-05-09T00:52:27;99641.50;;;12.27;55.54
63700;BME280;49845;47.130;142.766;2023-05-09T00:54:58;99563.97;;;11.69;55.91
63700;BME280;49845;47.130;142.766;2023-05-09T00:57:29;99656.59;;;12.21;56.78
63700;BME280;49845;47.130;142.766;2023-05-09T01:00:01;99657.16;;;12.02;56.68
63700;BME280;49845;47.130;142.766;2023-05-09T01:02:32;99649.69;;;11.60;57.30
63700;BME280;49845;47.130;142.766;2023-05-09T01:05:03;99666.81;;;11.42;58.15
63700;BME280;49845;47.130;142.766;2023-05-09T01:07:38;99664.13;;;11.14;58.96
63700;BME280;49845;47.130;142.766;2023-05-09T01:10:18;99662.06;;;10.96;59.91
63700;BME280;49845;47.130;142.766;2023-05-09T01:12:54;99671.19;;;10.79;60.89
63700;BME280;49845;47.130;142.766;2023-05-09T01:15:33;99667.84;;;10.74;61.58
63700;BME280;49845;47.130;142.766;2023-05-09T01:18:10;99674.34;;;10.60;63.24
63700;BME280;49845;47.130;142.766;2023-05-09T01:20:43;99682.59;;;10.43;63.84
63700;BME280;49845;47.130;142.766;2023-05-09T01:23:30;99689.94;;;10.28;64.42
63700;BME280;49845;47.130;142.766;2023-05-09T01:26:05;99669.78;;;9.96;65.37
63700;BME280;49845;47.130;142.766;2023-05-09T01:28:59;;;;9.97;
63700;BME280;49845;47.130;142.766;2023-05-09T01:31:39;99680.00;;;9.66;69.14
63700;BME280;49845;47.130;142.766;2023-05-09T01:34:10;99696.91;;;9.48;71.27
63700;BME280;49845;47.130;142.766;2023-05-09T01:36:46;99697.22;;;9.33;73.85
63700;BME280;49845;47.130;142.766;2023-05-09T01:39:19;99656.06;;;9.05;74.83
63700;BME280;49845;47.130;142.766;2023-05-09T01:41:52;99657.59;;;9.16;76.00
63700;BME280;49845;47.130;142.766;2023-05-09T01:44:24;99672.03;;;9.32;76.45
63700;BME280;49845;47.130;142.766;2023-05-09T01:46:59;99690.97;;;9.40;77.49
63700;BME280;49845;47.130;142.766;2023-05-09T01:49:31;99687.44;;;9.43;78.09
63700;BME280;49845;47.130;142.766;2023-05-09T01:52:10;99679.00;;;9.32;78.78
63700;BME280;49845;47.130;142.766;2023-05-09T01:54:45;99685.19;;;9.26;79.74
63700;BME280;49845;47.130;142.766;2023-05-09T01:57:18;99668.22;;;9.06;80.60
63700;BME280;49845;47.130;142.766;2023-05-09T01:59:50;99675.28;;;9.01;81.66
63700;BME280;49845;47.130;142.766;2023-05-09T02:02:24;99666.78;;;8.90;82.97
63700;BME280;49845;47.130;142.766;2023-05-09T02:04:55;99647.53;;;8.97;83.43
63700;BME280;49845;47.130;142.766;2023-05-09T02:07:28;99638.72;;;9.04;83.80
63700;BME280;49845;47.130;142.766;2023-05-09T02:10:00;99640.38;;;9.09;84.66
63700;BME280;49845;47.130;142.766;2023-05-09T02:12:32;99651.13;;;9.35;84.44
63700;BME280;49845;47.130;142.766;2023-05-09T02:15:03;99647.41;;;9.45;84.19
63700;BME280;49845;47.130;142.766;2023-05-09T02:17:35;99641.19;;;9.53;84.25
63700;BME280;49845;47.130;142.766;2023-05-09T02:20:07;99644.47;;;9.61;83.64
63700;BME280;49845;47.130;142.766;2023-05-09T02:22:39;99643.59;;;9.62;84.10
63700;BME280;49845;47.130;142.766;2023-05-09T02:25:11;99626.44;;;9.52;84.92
63700;BME280;49845;47.130;142.766;2023-05-09T02:27:45;99618.59;;;9.52;86.17
63700;BME280;49845;47.130;142.766;2023-05-09T02:30:19;99632.31;;;9.60;87.12
63700;BME280;49845;47.130;142.766;2023-05-09T02:32:56;99646.19;;;9.62;88.03
63700;BME280;49845;47.130;142.766;2023-05-09T02:35:29;99623.94;;;9.45;88.01
63700;BME280;49845;47.130;142.766;2023-05-09T02:37:59;99595.97;;;9.13;88.17
63700;BME280;49845;47.130;142.766;2023-05-09T02:40:30;99630.66;;;9.17;87.45
63700;BME280;49845;47.130;142.766;2023-05-09T02:43:01;99532.31;;;8.38;87.37
63700;BME280;49845;47.130;142.766;2023-05-09T02:45:31;99630.44;;;8.84;87.81
63700;BME280;49845;47.130;142.766;2023-05-09T02:48:04;99566.28;;;8.32;88.09
63700;BME280;49845;47.130;142.766;2023-05-09T02:50:36;99629.16;;;8.58;88.97
63700;BME280;49845;47.130;142.766;2023-05-09T02:53:09;99606.78;;;8.48;89.61
63700;BME280;49845;47.130;142.766;2023-05-09T02:55:39;99617.19;;;8.51;90.12
63700;BME280;49845;47.130;142.766;2023-05-09T02:58:10;99625.06;;;8.47;90.34
63700;BME280;49845;47.130;142.766;2023-05-09T03:00:42;99589.03;;;8.22;90.52
63700;BME280;49845;47.130;142.766;2023-05-09T03:03:14;99622.72;;;8.30;90.71
63700;BME280;49845;47.130;142.766;2023-05-09T03:05:45;99622.66;;;8.33;91.64
63700;BME280;49845;47.130;142.766;2023-05-09T03:08:15;99619.22;;;8.31;91.96
63700;BME280;49845;47.130;142.766;2023-05-09T03:10:46;99612.19;;;8.36;93.13
63700;BME280;49845;47.130;142.766;2023-05-09T03:13:16;99612.00;;;8.48;93.79
63700;BME280;49845;47.130;142.766;2023-05-09T03:15:47;99600.50;;;8.60;93.43
63700;BME280;49845;47.130;142.766;2023-05-09T03:18:19;99603.97;;;8.60;92.93
63700;BME280;49845;47.130;142.766;2023-05-09T03:20:50;99604.88;;;8.59;93.28
63700;BME280;49845;47.130;142.766;2023-05-09T03:23:20;99599.81;;;8.50;93.11
63700;BME280;49845;47.130;142.766;2023-05-09T03:25:51;99597.97;;;8.55;92.69
63700;BME280;49845;47.130;142.766;2023-05-09T03:28:23;99609.25;;;8.56;93.20
63700;BME280;49845;47.130;142.766;2023-05-09T03:30:54;99606.75;;;8.51;93.23
63700;BME280;49845;47.130;142.766;2023-05-09T03:33:27;99603.34;;;8.46;93.66
63700;BME280;49845;47.130;142.766;2023-05-09T03:35:57;99610.16;;;8.53;94.23
63700;BME280;49845;47.130;142.766;2023-05-09T03:38:28;99610.16;;;8.53;94.64
63700;BME280;49845;47.130;142.766;2023-05-09T03:40:58;99610.06;;;8.59;94.74
63700;BME280;49845;47.130;142.766;2023-05-09T03:43:29;99610.06;;;8.59;94.66
63700;BME280;49845;47.130;142.766;2023-05-09T03:46:00;99610.16;;;8.53;94.44
63700;BME280;49845;47.130;142.766;2023-05-09T03:48:32;99621.47;;;8.54;94.29
63700;BME280;49845;47.130;142.766;2023-05-09T03:51:03;99618.88;;;8.52;94.12
63700;BME280;49845;47.130;142.766;2023-05-09T03:53:34;99618.97;;;8.46;93.68
63700;BME280;49845;47.130;142.766;2023-05-09T03:56:05;99623.31;;;8.47;94.02
63700;BME280;49845;47.130;142.766;2023-05-09T03:58:35;99613.81;;;8.43;93.97
63700;BME280;49845;47.130;142.766;2023-05-09T04:01:06;99606.84;;;8.45;93.85
63700;BME280;49845;47.130;142.766;2023-05-09T04:03:38;99610.28;;;8.47;94.03
63700;BME280;49845;47.130;142.766;2023-05-09T04:06:09;99610.28;;;8.47;94.19
63700;BME280;49845;47.130;142.766;2023-05-09T04:08:39;99592.84;;;8.52;94.20
63700;BME280;49845;47.130;142.766;2023-05-09T04:11:10;99591.06;;;8.54;93.99
63700;BME280;49845;47.130;142.766;2023-05-09T04:13:40;99603.25;;;8.52;93.67
63700;BME280;49845;47.130;142.766;2023-05-09T04:16:10;99606.69;;;8.54;93.92
63700;BME280;49845;47.130;142.766;2023-05-09T04:18:43;99600.59;;;8.55;93.41
63700;BME280;49845;47.130;142.766;2023-05-09T04:21:13;99591.06;;;8.54;93.97
63700;BME280;49845;47.130;142.766;2023-05-09T04:23:43;99605.63;;;8.64;93.91
63700;BME280;49845;47.130;142.766;2023-05-09T04:26:16;99601.03;;;8.79;94.20
63700;BME280;49845;47.130;142.766;2023-05-09T04:28:46;99604.50;;;8.78;92.93
63700;BME280;49845;47.130;142.766;2023-05-09T04:31:19;99612.22;;;8.84;92.75
63700;BME280;49845;47.130;142.766;2023-05-09T04:33:53;99625.16;;;8.87;92.48
63700;BME280;49845;47.130;142.766;2023-05-09T04:36:25;99616.44;;;8.88;92.59
63700;BME280;49845;47.130;142.766;2023-05-09T04:38:56;99613.16;;;8.80;92.40
63700;BME280;49845;47.130;142.766;2023-05-09T04:41:27;99616.59;;;8.82;92.28
63700;BME280;49845;47.130;142.766;2023-05-09T04:43:57;99618.44;;;8.77;91.83
63700;BME280;49845;47.130;142.766;2023-05-09T04:46:28;99614.91;;;8.78;91.72
63700;BME280;49845;47.130;142.766;2023-05-09T04:49:00;99617.50;;;8.79;91.58
63700;BME280;49845;47.130;142.766;2023-05-09T04:51:30;99621.03;;;8.75;91.16
63700;BME280;49845;47.130;142.766;2023-05-09T04:54:01;99627.16;;;8.73;91.37
63700;BME280;49845;47.130;142.766;2023-05-09T04:56:32;99632.44;;;8.70;91.09
63700;BME280;49845;47.130;142.766;2023-05-09T04:59:03;99635.94;;;8.69;90.88
63700;BME280;49845;47.130;142.766;2023-05-09T05:01:33;99636.06;;;8.62;90.86
63700;BME280;49845;47.130;142.766;2023-05-09T05:04:06;99630.88;;;8.10;88.89
63700;BME280;49845;47.130;142.766;2023-05-09T05:06:36;99666.72;;;7.29;91.55
63700;BME280;49845;47.130;142.766;2023-05-09T05:09:07;99640.75;;;6.48;95.32
63700;BME280;49845;47.130;142.766;2023-05-09T05:11:38;99675.53;;;6.26;96.87
63700;BME280;49845;47.130;142.766;2023-05-09T05:14:23;99675.78;;;5.95;98.08
63700;BME280;49845;47.130;142.766;2023-05-09T05:16:54;99680.19;;;5.79;98.76
63700;BME280;49845;47.130;142.766;2023-05-09T05:19:26;99682.00;;;5.67;99.01
63700;BME280;49845;47.130;142.766;2023-05-09T05:21:56;99684.59;;;5.67;99.57
63700;BME280;49845;47.130;142.766;2023-05-09T05:24:27;99681.13;;;5.68;99.78
63700;BME280;49845;47.130;142.766;2023-05-09T05:26:58;99683.72;;;5.68;99.17
63700;BME280;49845;47.130;142.766;2023-05-09T05:29:29;99677.75;;;5.55;99.47
63700;BME280;49845;47.130;142.766;2023-05-09T05:32:00;99686.41;;;5.49;99.90
63700;BME280;49845;47.130;142.766;2023-05-09T05:34:32;99676.88;;;5.51;100.00
63700;BME280;49845;47.130;142.766;2023-05-09T05:37:03;99680.28;;;5.67;100.00
63700;BME280;49845;47.130;142.766;2023-05-09T05:39:33;99675.91;;;5.77;100.00
63700;BME280;49845;47.130;142.766;2023-05-09T05:42:04;99680.19;;;5.78;99.94
63700;BME280;49845;47.130;142.766;2023-05-09T05:44:34;99682.78;;;5.78;99.18
63700;BME280;49845;47.130;142.766;2023-05-09T05:47:05;99686.22;;;5.80;99.85
63700;BME280;49845;47.130;142.766;2023-05-09T05:49:37;99691.41;;;5.83;99.74
63700;BME280;49845;47.130;142.766;2023-05-09T05:52:07;99686.22;;;5.83;99.68
63700;BME280;49845;47.130;142.766;2023-05-09T05:54:38;99677.59;;;5.78;99.65
63700;BME280;49845;47.130;142.766;2023-05-09T05:57:08;99682.75;;;5.81;99.79
63700;BME280;49845;47.130;142.766;2023-05-09T05:59:39;99692.28;;;5.80;100.00
63700;BME280;49845;47.130;142.766;2023-05-09T06:02:09;99644.97;;;5.49;100.00
63700;BME280;49845;47.130;142.766;2023-05-09T06:04:41;99691.41;;;5.83;100.00
63700;BME280;49845;47.130;142.766;2023-05-09T06:07:12;99688.03;;;5.72;99.81
63700;BME280;49845;47.130;142.766;2023-05-09T06:09:43;99693.22;;;5.66;99.79
63700;BME280;49845;47.130;142.766;2023-05-09T06:12:14;99673.38;;;5.58;99.05
63700;BME280;49845;47.130;142.766;2023-05-09T06:14:45;99682.03;;;5.57;100.00
63700;BME280;49845;47.130;142.766;2023-05-09T06:17:15;99685.44;;;5.64;100.00
63700;BME280;49845;47.130;142.766;2023-05-09T06:19:48;99690.66;;;5.61;99.71
63700;BME280;49845;47.130;142.766;2023-05-09T06:22:18;99693.28;;;5.59;100.00
63700;BME280;49845;47.130;142.766;2023-05-09T06:24:48;99703.69;;;5.50;99.96
63700;BME280;49845;47.130;142.766;2023-05-09T06:27:19;99695.09;;;5.42;100.00
63700;BME280;49845;47.130;142.766;2023-05-09T06:29:49;99696.81;;;5.40;100.00
63700;BME280;49845;47.130;142.766;2023-05-09T06:32:20;99693.38;;;5.35;100.00
63700;BME280;49845;47.130;142.766;2023-05-09T06:34:53;99695.16;;;5.25;100.00
63700;BME280;49845;47.130;142.766;2023-05-09T06:37:24;99702.09;;;5.12;100.00
63700;BME280;49845;47.130;142.766;2023-05-09T06:39:54;99710.72;;;5.17;100.00
63700;BME280;49845;47.130;142.766;2023-05-09T06:42:25;99716.78;;;5.12;100.00
63700;BME280;49845;47.130;142.766;2023-05-09T06:44:55;99724.56;;;5.07;100.00
63700;BME280;49845;47.130;142.766;2023-05-09T06:47:26;99733.19;;;5.09;100.00
63700;BME280;49845;47.130;142.766;2023-05-09T06:49:58;99721.94;;;5.09;100.00
63700;BME280;49845;47.130;142.766;2023-05-09T06:52:28;99731.44;;;5.08;100.00
63700;BME280;49845;47.130;142.766;2023-05-09T06:54:59;99721.97;;;5.07;100.00
63700;BME280;49845;47.130;142.766;2023-05-09T06:57:29;99734.88;;;5.23;100.00
63700;BME280;49845;47.130;142.766;2023-05-09T07:00:00;99719.22;;;5.44;100.00
63700;BME280;49845;47.130;142.766;2023-05-09T07:02:32;99732.97;;;5.66;100.00
63700;BME280;49845;47.130;142.766;2023-05-09T07:05:05;99729.56;;;5.53;100.00
63700;BME280;49845;47.130;142.766;2023-05-09T07:07:35;99746.03;;;5.49;100.00
63700;BME280;49845;47.130;142.766;2023-05-09T07:10:07;99754.72;;;5.30;100.00
63700;BME280;49845;47.130;142.766;2023-05-09T07:12:40;99721.09;;;4.99;100.00
63700;BME280;49845;47.130;142.766;2023-05-09T07:15:11;99757.34;;;5.11;100.00
63700;BME280;49845;47.130;142.766;2023-05-09T07:17:55;99759.94;;;5.13;100.00
63700;BME280;49845;47.130;142.766;2023-05-09T07:20:27;99752.19;;;5.14;100.00
63700;BME280;49845;47.130;142.766;2023-05-09T07:22:58;99755.59;;;5.23;100.00
63700;BME280;49845;47.130;142.766;2023-05-09T07:25:30;99753.88;;;5.20;100.00
63700;BME280;49845;47.130;142.766;2023-05-09T07:28:01;99759.91;;;5.16;100.00
63700;BME280;49845;47.130;142.766;2023-05-09T07:30:31;99755.63;;;5.10;100.00
63700;BME280;49845;47.130;142.766;2023-05-09T07:33:02;99762.53;;;5.08;100.00
63700;BME280;49845;47.130;142.766;2023-05-09T07:35:35;99741.81;;;4.99;100.00
63700;BME280;49845;47.130;142.766;2023-05-09T07:38:06;99764.22;;;5.28;100.00
63700;BME280;49845;47.130;142.766;2023-05-09T07:40:36;99781.50;;;5.19;100.00
63700;BME280;49845;47.130;142.766;2023-05-09T07:43:07;99779.81;;;5.09;100.00
63700;BME280;49845;47.130;142.766;2023-05-09T07:45:37;99781.53;;;5.10;100.00
63700;BME280;49845;47.130;142.766;2023-05-09T07:48:08;99789.31;;;5.03;100.00
63700;BME280;49845;47.130;142.766;2023-05-09T07:50:40;99793.63;;;4.84;100.00
63700;BME280;49845;47.130;142.766;2023-05-09T07:53:11;99810.91;;;4.88;100.00
63700;BME280;49845;47.130;142.766;2023-05-09T07:55:42;99824.72;;;4.90;100.00
63700;BME280;49845;47.130;142.766;2023-05-09T07:58:15;99825.56;;;4.90;100.00
63700;BME280;49845;47.130;142.766;2023-05-09T08:00:46;99822.13;;;4.87;100.00
63700;BME280;49845;47.130;142.766;2023-05-09T08:03:16;99839.38;;;4.85;100.00
63700;BME280;49845;47.130;142.766;2023-05-09T08:05:53;99848.88;;;4.92;100.00
63700;BME280;49845;47.130;142.766;2023-05-09T08:08:24;99846.28;;;4.95;100.00
63700;BME280;49845;47.130;142.766;2023-05-09T08:10:55;99836.78;;;4.91;100.00
63700;BME280;49845;47.130;142.766;2023-05-09T08:13:26;99855.75;;;4.99;100.00
63700;BME280;49845;47.130;142.766;2023-05-09T08:15:56;99855.78;;;5.02;100.00
63700;BME280;49845;47.130;142.766;2023-05-09T08:18:27;99860.09;;;5.05;100.00
63700;BME280;49845;47.130;142.766;2023-05-09T08:20:59;99863.53;;;4.96;100.00
63700;BME280;49845;47.130;142.766;2023-05-09T08:23:30;99874.75;;;4.89;100.00
63700;BME280;49845;47.130;142.766;2023-05-09T08:26:00;99880.78;;;4.91;100.00
63700;BME280;49845;47.130;142.766;2023-05-09T08:28:31;99878.22;;;4.88;100.00
63700;BME280;49845;47.130;142.766;2023-05-09T08:31:01;99870.44;;;4.91;100.00
63700;BME280;49845;47.130;142.766;2023-05-09T08:33:32;99885.97;;;4.91;100.00
63700;BME280;49845;47.130;142.766;2023-05-09T08:36:10;99888.56;;;4.80;100.00
63700;BME280;49845;47.130;142.766;2023-05-09T08:38:40;99884.22;;;4.70;100.00
63700;BME280;49845;47.130;142.766;2023-05-09T08:41:11;99897.16;;;4.62;100.00
63700;BME280;49845;47.130;142.766;2023-05-09T08:43:42;99902.31;;;4.59;100.00
63700;BME280;49845;47.130;142.766;2023-05-09T08:46:13;99905.75;;;4.49;100.00
63700;BME280;49845;47.130;142.766;2023-05-09T08:48:45;99908.31;;;4.46;100.00
63700;BME280;49845;47.130;142.766;2023-05-09T08:51:18;99907.44;;;4.35;100.00
63700;BME280;49845;47.130;142.766;2023-05-09T08:53:49;99917.78;;;4.30;100.00
63700;BME280;49845;47.130;142.766;2023-05-09T08:56:20;99922.06;;;4.26;100.00
63700;BME280;49845;47.130;142.766;2023-05-09T08:58:51;99921.16;;;4.21;100.00
63700;BME280;49845;47.130;142.766;2023-05-09T09:01:23;99909.06;;;4.05;100.00
63700;BME280;49845;47.130;142.766;2023-05-09T09:03:55;99926.31;;;4.12;100.00
63700;BME280;49845;47.130;142.766;2023-05-09T09:06:28;99911.59;;;4.02;100.00
63700;BME280;49845;47.130;142.766;2023-05-09T09:08:59;99923.69;;;4.03;100.00
63700;BME280;49845;47.130;142.766;2023-05-09T09:11:34;99936.66;;;4.10;100.00
63700;BME280;49845;47.130;142.766;2023-05-09T09:14:08;99916.75;;;3.96;100.00
63700;BME280;49845;47.130;142.766;2023-05-09T09:16:43;99944.38;;;4.00;100.00
63700;BME280;49845;47.130;142.766;2023-05-09T09:19:19;99958.06;;;3.85;100.00
63700;BME280;49845;47.130;142.766;2023-05-09T09:21:54;99970.97;;;3.80;100.00
63700;BME280;49845;47.130;142.766;2023-05-09T09:24:28;99975.19;;;3.67;100.00
63700;BME280;49845;47.130;142.766;2023-05-09T09:27:04;99977.63;;;3.48;100.00
63700;BME280;49845;47.130;142.766;2023-05-09T09:29:51;99998.19;;;3.38;100.00
63700;BME280;49845;47.130;142.766;2023-05-09T09:32:32;99991.25;;;3.30;100.00
63700;BME280;49845;47.130;142.766;2023-05-09T09:35:06;100003.28;;;3.29;100.00
63700;BME280;49845;47.130;142.766;2023-05-09T09:37:42;99970.34;;;3.03;100.00
63700;BME280;49845;47.130;142.766;2023-05-09T09:40:18;100015.28;;;3.24;100.00
63700;BME280;49845;47.130;142.766;2023-05-09T09:42:51;99999.66;;;3.12;100.00
63700;BME280;49845;47.130;142.766;2023-05-09T09:45:22;100018.59;;;3.11;100.00
63700;BME280;49845;47.130;142.766;2023-05-09T09:47:53;100030.66;;;3.12;100.00
63700;BME280;49845;47.130;142.766;2023-05-09T09:50:24;100039.22;;;3.08;100.00
63700;BME280;49845;47.130;142.766;2023-05-09T09:52:56;100040.91;;;3.02;100.00
63700;BME280;49845;47.130;142.766;2023-05-09T09:55:28;100047.66;;;2.94;100.00
63700;BME280;49845;47.130;142.766;2023-05-09T09:58:02;100047.66;;;2.91;100.00
63700;BME280;49845;47.130;142.766;2023-05-09T10:00:33;100069.94;;;2.86;100.00
63700;BME280;49845;47.130;142.766;2023-05-09T10:03:06;100076.75;;;2.79;100.00
63700;BME280;49845;47.130;142.766;2023-05-09T10:05:46;100079.22;;;2.70;100.00
63700;BME280;49845;47.130;142.766;2023-05-09T10:08:27;100078.28;;;2.64;100.00
63700;BME280;49845;47.130;142.766;2023-05-09T10:11:00;100086.03;;;2.64;100.00
63700;BME280;49845;47.130;142.766;2023-05-09T10:13:34;100058.97;;;2.34;100.00
63700;BME280;49845;47.130;142.766;2023-05-09T10:16:09;100103.94;;;2.54;100.00
63700;BME280;49845;47.130;142.766;2023-05-09T10:18:41;100084.03;;;2.43;100.00
63700;BME280;49845;47.130;142.766;2023-05-09T10:21:14;100100.38;;;2.43;100.00
63700;BME280;49845;47.130;142.766;2023-05-09T10:23:50;100095.09;;;2.37;100.00
63700;BME280;49845;47.130;142.766;2023-05-09T10:26:31;100109.06;;;2.50;100.00
63700;BME280;49845;47.130;142.766;2023-05-09T10:29:10;100084.78;;;2.37;100.00
63700;BME280;49845;47.130;142.766;2023-05-09T10:31:44;100122.00;;;2.54;100.00
63700;BME280;49845;47.130;142.766;2023-05-09T10:34:22;100122.81;;;2.50;100.00
63700;BME280;49845;47.130;142.766;2023-05-09T10:36:54;100122.69;;;2.41;100.00
63700;BME280;49845;47.130;142.766;2023-05-09T10:39:27;100127.75;;;2.35;100.00
63700;BME280;49845;47.130;142.766;2023-05-09T10:41:59;100139.81;;;2.36;100.00
63700;BME280;49845;47.130;142.766;2023-05-09T10:44:38;100140.50;;;2.26;100.00
63700;BME280;49845;47.130;142.766;2023-05-09T10:47:09;100154.22;;;2.23;100.00
63700;BME280;49845;47.130;142.766;2023-05-09T10:49:40;100149.06;;;2.23;100.00
63700;BME280;49845;47.130;142.766;2023-05-09T10:52:24;100160.25;;;2.24;100.00
63700;BME280;49845;47.130;142.766;2023-05-09T10:55:08;100168.75;;;2.20;100.00
63700;BME280;49845;47.130;142.766;2023-05-09T10:57:42;100172.03;;;2.09;100.00
63700;BME280;49845;47.130;142.766;2023-05-09T11:00:24;100168.47;;;2.01;100.00
63700;BME280;49845;47.130;142.766;2023-05-09T11:03:06;100170.13;;;1.98;100.00
63700;BME280;49845;47.130;142.766;2023-05-09T11:05:38;100147.34;;;1.70;100.00
63700;BME280;49845;47.130;142.766;2023-05-09T11:08:25;100201.03;;;1.96;100.00
63700;BME280;49845;47.130;142.766;2023-05-09T11:11:05;100124.66;;;1.51;100.00
63700;BME280;49845;47.130;142.766;2023-05-09T11:13:36;100201.94;;;2.00;100.00
63700;BME280;49845;47.130;142.766;2023-05-09T11:16:10;100203.72;;;2.04;100.00
63700;BME280;49845;47.130;142.766;2023-05-09T11:18:52;100207.16;;;2.04;100.00
63700;BME280;49845;47.130;142.766;2023-05-09T11:21:25;100214.91;;;2.04;100.00
63700;BME280;49845;47.130;142.766;2023-05-09T11:23:56;100214.91;;;2.04;100.00
63700;BME280;49845;47.130;142.766;2023-05-09T11:26:30;100218.34;;;2.03;100.00
63700;BME280;49845;47.130;142.766;2023-05-09T11:29:05;100225.06;;;1.97;100.00
63700;BME280;49845;47.130;142.766;2023-05-09T11:32:06;100230.28;;;1.98;100.00
63700;BME280;49845;47.130;142.766;2023-05-09T11:34:36;100228.63;;;2.03;100.00
63700;BME280;49845;47.130;142.766;2023-05-09T11:37:09;100235.44;;;1.98;100.00
63700;BME280;49845;47.130;142.766;2023-05-09T11:39:56;100226.63;;;1.87;100.00
63700;BME280;49845;47.130;142.766;2023-05-09T11:42:29;100223.03;;;1.79;100.00
63700;BME280;49845;47.130;142.766;2023-05-09T11:45:03;100234.28;;;1.84;100.00
63700;BME280;49845;47.130;142.766;2023-05-09T11:47:35;100158.75;;;1.38;100.00
63700;BME280;49845;47.130;142.766;2023-05-09T11:50:09;100195.28;;;1.62;100.00
63700;BME280;49845;47.130;142.766;2023-05-09T11:52:44;100214.53;;;1.83;100.00
63700;BME280;49845;47.130;142.766;2023-05-09T11:55:18;100126.78;;;1.25;100.00
63700;BME280;49845;47.130;142.766;2023-05-09T11:57:52;100215.25;;;1.76;100.00
63700;BME280;49845;47.130;142.766;2023-05-09T12:00:24;100214.34;;;1.73;100.00
63700;BME280;49845;47.130;142.766;2023-05-09T12:02:56;100183.94;;;1.53;100.00
63700;BME280;49845;47.130;142.766;2023-05-09T12:05:27;100215.13;;;1.69;100.00
63700;BME280;49845;47.130;142.766;2023-05-09T12:08:02;100230.56;;;1.68;100.00
63700;BME280;49845;47.130;142.766;2023-05-09T12:10:36;100234.78;;;1.63;100.00
63700;BME280;49845;47.130;142.766;2023-05-09T12:13:09;100240.06;;;1.70;100.00
63700;BME280;49845;47.130;142.766;2023-05-09T12:15:40;100240.06;;;1.70;100.00
63700;BME280;49845;47.130;142.766;2023-05-09T12:18:11;100232.28;;;1.67;100.00
63700;BME280;49845;47.130;142.766;2023-05-09T12:20:43;100242.66;;;1.70;100.00
63700;BME280;49845;47.130;142.766;2023-05-09T12:23:15;100230.34;;;1.56;100.00
63700;BME280;49845;47.130;142.766;2023-05-09T12:25:51;100203.34;;;1.37;100.00
63700;BME280;49845;47.130;142.766;2023-05-09T12:28:25;100236.34;;;1.56;100.00
63700;BME280;49845;47.130;142.766;2023-05-09T12:30:56;100236.97;;;1.43;100.00
63700;BME280;49845;47.130;142.766;2023-05-09T12:33:27;100131.94;;;0.82;100.00
63700;BME280;49845;47.130;142.766;2023-05-09T12:36:03;100250.75;;;1.45;100.00
63700;BME280;49845;47.130;142.766;2023-05-09T12:38:35;100251.59;;;1.47;100.00
63700;BME280;49845;47.130;142.766;2023-05-09T12:41:07;100244.53;;;1.37;100.00
63700;BME280;49845;47.130;142.766;2023-05-09T12:43:59;100242.13;;;1.44;100.00
63700;BME280;49845;47.130;142.766;2023-05-09T12:46:32;100198.53;;;1.11;100.00
63700;BME280;49845;47.130;142.766;2023-05-09T12:49:04;100248.06;;;1.42;100.00
63700;BME280;49845;47.130;142.766;2023-05-09T12:51:35;100256.75;;;1.45;100.00
63700;BME280;49845;47.130;142.766;2023-05-09T12:54:06;100261.03;;;1.45;100.00
63700;BME280;49845;47.130;142.766;2023-05-09T12:56:38;100260.13;;;1.43;100.00
63700;BME280;49845;47.130;142.766;2023-05-09T12:59:13;100261.91;;;1.47;100.00
63700;BME280;49845;47.130;142.766;2023-05-09T13:01:54;100273.97;;;1.48;100.00
63700;BME280;49845;47.130;142.766;2023-05-09T13:04:27;100268.63;;;1.39;100.00
63700;BME280;49845;47.130;142.766;2023-05-09T13:07:06;100252.91;;;1.26;100.00
63700;BME280;49845;47.130;142.766;2023-05-09T13:09:53;100292.81;;;1.47;100.00